METAR Data
IDs: Format: Raw Decoded Include TAF

Data at: 0207 UTC 24 Sep 2018

KALX 240155Z AUTO 00000KT 10SM CLR 23/22 A3003 RMK AO2 T02260221
KALX 240135Z AUTO 00000KT 10SM CLR 23/23 A3002 RMK AO2 T02300230
KALX 240115Z AUTO 00000KT 10SM CLR 23/23 A3002 RMK AO2 T02330225
KALX 240055Z AUTO 00000KT 10SM CLR 24/23 A3001 RMK AO2 T02390234
KALX 240035Z AUTO 00000KT 10SM CLR 24/22 A3000 RMK AO2 T02440224
KALX 240015Z AUTO 00000KT 10SM CLR 25/23 A2999 RMK AO2 T02500225
KALX 232355Z AUTO 00000KT 10SM CLR 26/24 A2999 RMK AO2 T02560235 10314 20256
KALX 232335Z AUTO 00000KT 10SM CLR 26/22 A2999 RMK AO2 T02640221
KALX 232315Z AUTO 00000KT 10SM CLR 28/23 A2999 RMK AO2 T02830231
KALX 232255Z AUTO 00000KT 10SM CLR 30/22 A2998 RMK AO2 T02960219
KALX 232235Z AUTO 00000KT 10SM CLR 30/22 A2998 RMK AO2 T03020216
KALX 232215Z AUTO 14003KT 10SM CLR 31/22 A2998 RMK AO2 T03050215
KALX 232155Z AUTO 15004KT 10SM CLR 31/22 A2998 RMK AO2 T03080216
KALX 232135Z AUTO 14003KT 10SM CLR 31/22 A2998 RMK AO2 LTG DSNT W T03090218
KALX 232115Z AUTO 12005KT 10SM CLR 31/21 A2998 RMK AO2 T03100214
KALX 232055Z AUTO 14003KT 10SM CLR 31/22 A2998 RMK AO2 T03130215
KALX 232035Z AUTO 21004KT 10SM CLR 31/21 A2998 RMK AO2 T03120211
KALX 232015Z AUTO 00000KT 10SM CLR 31/22 A2998 RMK AO2 T03090218
KALX 231955Z AUTO 12006KT 10SM CLR 31/21 A2999 RMK AO2 T03090212
KALX 231935Z AUTO 20003KT 10SM CLR 31/21 A3000 RMK AO2 T03090213
KALX 231915Z AUTO 12006KT 10SM CLR 31/22 A3001 RMK AO2 T03080215
KALX 231855Z AUTO 15006KT 10SM CLR 31/21 A3002 RMK AO2 T03050213
KALX 231835Z AUTO 19007KT 10SM CLR 31/22 A3003 RMK AO2 T03080215
KALX 231815Z AUTO 15005KT 10SM CLR 31/21 A3004 RMK AO2 T03060213
KALX 231755Z AUTO 07004KT 10SM CLR 31/21 A3005 RMK AO2 T03060206 10308 20206
KALX 231735Z AUTO 00000KT 10SM CLR 30/21 A3006 RMK AO2 T03030206
KALX 231715Z AUTO 11003KT 10SM CLR 29/22 A3006 RMK AO2 T02940223
KALX 231655Z AUTO 00000KT 10SM CLR 29/23 A3007 RMK AO2 T02890225
KALX 231635Z AUTO 14005KT 10SM CLR 29/23 A3007 RMK AO2 T02850231
KALX 231615Z AUTO 13004KT 10SM CLR 29/23 A3008 RMK AO2 T02880231
KALX 231555Z AUTO 10006KT 10SM CLR 28/23 A3008 RMK AO2 LTG DSNT SE T02790227
KALX 231535Z AUTO 14004KT 10SM CLR 27/23 A3008 RMK AO2 T02710225
KALX 231515Z AUTO 12004KT 10SM CLR 27/22 A3008 RMK AO2 T02700224
KALX 231455Z AUTO 14003KT 10SM CLR 27/22 A3008 RMK AO2 T02660220
KALX 231435Z AUTO 11004KT 10SM CLR 26/22 A3008 RMK AO2 T02600220
KALX 231415Z AUTO 00000KT 10SM CLR 25/22 A3008 RMK AO2 T02500216
KALX 231355Z AUTO 00000KT 10SM CLR 25/22 A3007 RMK AO2 T02450215
KALX 231335Z AUTO 00000KT 10SM CLR 24/21 A3006 RMK AO2 LTG DSNT S T02360213
KALX 231315Z AUTO 00000KT 10SM CLR 23/22 A3007 RMK AO2 T02270215
KALX 231255Z AUTO 00000KT 10SM CLR 22/21 A3006 RMK AO2 T02170212
KALX 231235Z AUTO 00000KT 10SM CLR 21/21 A3006 RMK AO2 T02110208
KALX 231215Z AUTO 00000KT 10SM CLR 21/21 A3005 RMK AO2 T02080207
KALX 231155Z AUTO 00000KT 10SM CLR 21/21 A3004 RMK AO2 T02070207 10226 20205
KALX 231135Z AUTO 00000KT 10SM CLR 21/21 A3004 RMK AO2 T02060206
KALX 231115Z AUTO 00000KT 10SM CLR 21/21 A3004 RMK AO2 T02080208
KALX 231055Z AUTO 00000KT 10SM CLR 21/21 A3004 RMK AO2 T02120212
KALX 231035Z AUTO 00000KT 10SM CLR 21/21 A3003 RMK AO2 T02120212
KALX 231015Z AUTO 00000KT 10SM CLR 21/21 A3003 RMK AO2 T02140214
KALX 230955Z AUTO 00000KT 10SM CLR 22/22 A3002 RMK AO2 T02150215
KALX 230935Z AUTO 00000KT 10SM CLR 21/21 A3002 RMK AO2 T02080208
KALX 230915Z AUTO 00000KT 10SM CLR 21/21 A3002 RMK AO2 T02140214
KALX 230900Z AUTO 00000KT 10SM CLR 21/21 A3002 RMK AO2 T02140214
KALX 230835Z AUTO 00000KT 10SM CLR 22/22 A3002 RMK AO2 T02150215
KALX 230815Z AUTO 00000KT 10SM CLR 21/21 A3002 RMK AO2 T02140214
KALX 230755Z AUTO 00000KT 10SM CLR 22/22 A3002 RMK AO2 T02160216
KALX 230735Z AUTO 00000KT 10SM CLR 22/22 A3003 RMK AO2 T02160216
KALX 230715Z AUTO 00000KT 10SM CLR 22/22 A3003 RMK AO2 T02210221
KALX 230655Z AUTO 00000KT 10SM SCT055 SCT120 22/22 A3003 RMK AO2 T02200220
KALX 230635Z AUTO 00000KT 10SM CLR 22/22 A3004 RMK AO2 T02190219
KALX 230615Z AUTO 00000KT 10SM CLR 22/22 A3004 RMK AO2 T02230223
KALX 230555Z AUTO 00000KT 10SM CLR 23/22 A3004 RMK AO2 T02260221 10262 20216
KALX 230535Z AUTO 00000KT 10SM CLR 22/22 A3005 RMK AO2 T02220222
KALX 230515Z AUTO 00000KT 10SM CLR 23/22 A3005 RMK AO2 T02280221
KALX 230455Z AUTO 00000KT 10SM CLR 22/22 A3006 RMK AO2 T02160216 403170208
KALX 230435Z AUTO 00000KT 10SM CLR 23/23 A3006 RMK AO2 T02250225
KALX 230415Z AUTO 00000KT 10SM CLR 22/22 A3006 RMK AO2 T02220222
KALX 230355Z AUTO 00000KT 10SM SCT065 23/23 A3006 RMK AO2 T02300230
KALX 230335Z AUTO 00000KT 10SM BKN060 BKN075 24/23 A3006 RMK AO2 T02380231
KALX 230315Z AUTO 00000KT 10SM SCT060 24/24 A3007 RMK AO2 T02400236
KALX 230255Z AUTO 00000KT 10SM CLR 24/23 A3007 RMK AO2 T02360234
KALX 230235Z AUTO 00000KT 10SM SCT060 SCT075 23/23 A3006 RMK AO2 T02310231
KALX 230215Z AUTO 00000KT 10SM SCT060 SCT075 23/23 A3006 RMK AO2 T02310231
KALX 230155Z AUTO 00000KT 10SM CLR 24/23 A3006 RMK AO2 T02350234
KALX 230135Z AUTO 00000KT 10SM CLR 24/24 A3005 RMK AO2 T02380238
KALX 230115Z AUTO 00000KT 10SM CLR 24/24 A3004 RMK AO2 T02400237
KALX 230055Z AUTO 00000KT 10SM CLR 24/23 A3003 RMK AO2 T02400233
KALX 230035Z AUTO 00000KT 10SM CLR 25/23 A3002 RMK AO2 T02490234
KALX 230015Z AUTO 00000KT 10SM CLR 26/24 A3002 RMK AO2 T02550236
KALX 222355Z AUTO 00000KT 10SM CLR 26/24 A3002 RMK AO2 T02630236 10317 20263
KALX 222335Z AUTO 00000KT 10SM CLR 28/24 A3001 RMK AO2 T02750243
KALX 222315Z AUTO 00000KT 10SM CLR 29/23 A3001 RMK AO2 T02920228
KALX 222255Z AUTO 00000KT 10SM CLR 30/23 A3001 RMK AO2 T02990227
KALX 222235Z AUTO 00000KT 10SM CLR 31/23 A3001 RMK AO2 T03050226
KALX 222215Z AUTO 12004KT 10SM CLR 31/22 A3000 RMK AO2 T03070220
KALX 222155Z AUTO 13004KT 10SM CLR 30/22 A3000 RMK AO2 T03030222
KALX 222135Z AUTO 15007KT 110V180 10SM CLR 31/23 A3000 RMK AO2 LTG DSNT W T03130228
KALX 222115Z AUTO 13003KT 10SM CLR 31/22 A3000 RMK AO2 T03130222
KALX 222055Z AUTO 14005KT 10SM CLR 31/22 A3000 RMK AO2 T03140221
KALX 222035Z AUTO 14003KT 10SM CLR 32/23 A3001 RMK AO2 T03170225
KALX 222015Z AUTO 20005KT 10SM CLR 32/22 A3001 RMK AO2 T03150222
KALX 221955Z AUTO 21005KT 10SM CLR 32/23 A3002 RMK AO2 T03150232
KALX 221930Z AUTO 18003KT 10SM CLR 31/23 A3004 RMK AO2 T03090227
KALX 221915Z AUTO 15003KT 10SM CLR 31/23 A3004 RMK AO2 T03060226
KALX 221855Z AUTO 11005KT 10SM CLR 31/23 A3006 RMK AO2 T03070226
KALX 221835Z AUTO 11005KT 10SM CLR 31/23 A3007 RMK AO2 T03070229
KALX 221815Z AUTO 16003KT 10SM CLR 30/23 A3008 RMK AO2 T03030227
KALX 221755Z AUTO 11006KT 10SM CLR 30/22 A3008 RMK AO2 LTG DSNT W T03020223 10308 20212
KALX 221735Z AUTO 14006KT 10SM CLR 31/23 A3009 RMK AO2 T03070232
KALX 221715Z AUTO 16006KT 10SM SCT035 30/23 A3010 RMK AO2 T03000229
KALX 221655Z AUTO 00000KT 10SM SCT035 30/23 A3011 RMK AO2 T02970232
KALX 221635Z AUTO 09004KT 10SM CLR 29/24 A3011 RMK AO2 T02920235
KALX 221615Z AUTO 00000KT 10SM CLR 29/24 A3012 RMK AO2 LTG DSNT S T02860241
KALX 221555Z AUTO 05003KT 10SM CLR 28/24 A3012 RMK AO2 T02800242
KALX 221535Z AUTO 00000KT 10SM CLR 27/24 A3012 RMK AO2 T02740242
KALX 221515Z AUTO 04003KT 10SM SCT016 27/24 A3013 RMK AO2 T02720244
KALX 221455Z AUTO 05004KT 10SM SCT014 27/24 A3012 RMK AO2 T02700243
KALX 221435Z AUTO 13003KT 10SM CLR 26/24 A3012 RMK AO2 T02620242
KALX 221415Z AUTO 00000KT 10SM SCT012 26/24 A3012 RMK AO2 T02580241